sensor_id;sensor_type;location;lat;lon;timestamp;pressure;altitude;pressure_sealevel;temperature;humidity
28004;BME280;15330;51.234;6.754;2023-04-10T00:01:27;101717.06;;;10.00;65.76
28004;BME280;15330;51.234;6.754;2023-04-10T00:03:56;101719.81;;;9.79;66.53
28004;BME280;15330;51.234;6.754;2023-04-10T00:06:21;101706.78;;;9.96;66.09
28004;BME280;15330;51.234;6.754;2023-04-10T00:08:47;101711.44;;;9.93;65.94
28004;BME280;15330;51.234;6.754;2023-04-10T00:11:12;101709.97;;;9.80;66.78
28004;BME280;15330;51.234;6.754;2023-04-10T00:13:37;101709.44;;;9.86;66.86
28004;BME280;15330;51.234;6.754;2023-04-10T00:16:03;101710.94;;;9.79;66.84
28004;BME280;15330;51.234;6.754;2023-04-10T00:18:28;101704.09;;;9.86;66.94
28004;BME280;15330;51.234;6.754;2023-04-10T00:20:54;101700.81;;;9.73;67.26
28004;BME280;15330;51.234;6.754;2023-04-10T00:23:20;101700.94;;;9.71;67.11
28004;BME280;15330;51.234;6.754;2023-04-10T00:25:46;101693.94;;;9.80;66.42
28004;BME280;15330;51.234;6.754;2023-04-10T00:28:11;101693.34;;;9.67;67.06
28004;BME280;15330;51.234;6.754;2023-04-10T00:30:37;101688.53;;;9.61;67.09
28004;BME280;15330;51.234;6.754;2023-04-10T00:33:02;101681.41;;;9.71;67.03
28004;BME280;15330;51.234;6.754;2023-04-10T00:35:28;101688.44;;;9.72;67.01
28004;BME280;15330;51.234;6.754;2023-04-10T00:37:53;101683.91;;;9.63;67.12
28004;BME280;15330;51.234;6.754;2023-04-10T00:40:20;101679.00;;;9.68;67.26
28004;BME280;15330;51.234;6.754;2023-04-10T00:42:46;101672.25;;;9.64;67.21
28004;BME280;15330;51.234;6.754;2023-04-10T00:45:11;101671.81;;;9.68;67.60
28004;BME280;15330;51.234;6.754;2023-04-10T00:47:37;101677.41;;;9.55;67.73
28004;BME280;15330;51.234;6.754;2023-04-10T00:50:03;101675.59;;;9.56;67.69
28004;BME280;15330;51.234;6.754;2023-04-10T00:52:30;101672.38;;;9.62;67.94
28004;BME280;15330;51.234;6.754;2023-04-10T00:54:56;101678.09;;;9.48;68.33
28004;BME280;15330;51.234;6.754;2023-04-10T00:57:23;101676.47;;;9.66;67.92
28004;BME280;15330;51.234;6.754;2023-04-10T00:59:49;101671.50;;;9.52;68.43
28004;BME280;15330;51.234;6.754;2023-04-10T01:02:16;101669.09;;;9.49;68.82
28004;BME280;15330;51.234;6.754;2023-04-10T01:04:41;101668.81;;;9.42;69.19
28004;BME280;15330;51.234;6.754;2023-04-10T01:10:16;101665.97;;;9.34;69.58
28004;BME280;15330;51.234;6.754;2023-04-10T01:12:57;101667.91;;;9.32;69.50
28004;BME280;15330;51.234;6.754;2023-04-10T01:15:36;101655.44;;;9.42;69.41
28004;BME280;15330;51.234;6.754;2023-04-10T01:21:01;101652.22;;;9.48;69.02
28004;BME280;15330;51.234;6.754;2023-04-10T01:26:14;101650.06;;;9.33;69.67
28004;BME280;15330;51.234;6.754;2023-04-10T01:33:59;101637.41;;;9.35;69.90
28004;BME280;15330;51.234;6.754;2023-04-10T01:36:35;101629.00;;;9.39;69.67
28004;BME280;15330;51.234;6.754;2023-04-10T01:39:01;101625.16;;;9.23;70.05
28004;BME280;15330;51.234;6.754;2023-04-10T01:41:28;101627.28;;;9.29;70.05
28004;BME280;15330;51.234;6.754;2023-04-10T01:43:56;101624.03;;;9.25;70.58
28004;BME280;15330;51.234;6.754;2023-04-10T01:46:23;101618.09;;;9.12;70.97
28004;BME280;15330;51.234;6.754;2023-04-10T01:48:52;101608.94;;;9.14;71.10
28004;BME280;15330;51.234;6.754;2023-04-10T01:51:18;101615.84;;;9.17;71.33
28004;BME280;15330;51.234;6.754;2023-04-10T01:53:44;101618.00;;;9.23;70.60
28004;BME280;15330;51.234;6.754;2023-04-10T01:56:12;101618.84;;;9.24;70.76
28004;BME280;15330;51.234;6.754;2023-04-10T01:58:38;101609.53;;;9.18;71.24
28004;BME280;15330;51.234;6.754;2023-04-10T02:01:03;101599.97;;;9.15;71.23
28004;BME280;15330;51.234;6.754;2023-04-10T02:03:29;101610.94;;;9.12;71.32
28004;BME280;15330;51.234;6.754;2023-04-10T02:06:14;101606.84;;;9.08;71.68
28004;BME280;15330;51.234;6.754;2023-04-10T02:08:51;101615.44;;;9.12;71.08
28004;BME280;15330;51.234;6.754;2023-04-10T02:11:27;101606.06;;;8.97;71.78
28004;BME280;15330;51.234;6.754;2023-04-10T02:13:59;101592.34;;;9.01;72.18
28004;BME280;15330;51.234;6.754;2023-04-10T02:16:26;101601.28;;;8.91;72.48
28004;BME280;15330;51.234;6.754;2023-04-10T02:18:54;101592.88;;;8.95;71.87
28004;BME280;15330;51.234;6.754;2023-04-10T02:21:20;101596.47;;;8.84;71.82
28004;BME280;15330;51.234;6.754;2023-04-10T02:23:46;101605.78;;;8.90;71.90
28004;BME280;15330;51.234;6.754;2023-04-10T02:26:12;101602.09;;;8.81;72.27
28004;BME280;15330;51.234;6.754;2023-04-10T02:28:38;101608.78;;;8.76;72.21
28004;BME280;15330;51.234;6.754;2023-04-10T02:31:04;101604.34;;;8.86;72.18
28004;BME280;15330;51.234;6.754;2023-04-10T02:33:29;101608.97;;;8.63;73.40
28004;BME280;15330;51.234;6.754;2023-04-10T02:35:55;101603.94;;;8.60;73.15
28004;BME280;15330;51.234;6.754;2023-04-10T02:38:20;101603.25;;;8.68;73.39
28004;BME280;15330;51.234;6.754;2023-04-10T02:40:46;101598.25;;;8.74;72.99
28004;BME280;15330;51.234;6.754;2023-04-10T02:43:11;101600.78;;;8.76;72.62
28004;BME280;15330;51.234;6.754;2023-04-10T02:45:37;101596.25;;;8.67;73.18
28004;BME280;15330;51.234;6.754;2023-04-10T02:48:04;101598.66;;;8.70;73.20
28004;BME280;15330;51.234;6.754;2023-04-10T02:50:30;101596.50;;;8.64;72.93
28004;BME280;15330;51.234;6.754;2023-04-10T02:52:56;101598.78;;;8.68;72.87
28004;BME280;15330;51.234;6.754;2023-04-10T02:55:22;101583.63;;;8.69;72.96
28004;BME280;15330;51.234;6.754;2023-04-10T02:57:47;101585.25;;;8.60;73.41
28004;BME280;15330;51.234;6.754;2023-04-10T03:00:13;101592.41;;;8.60;73.60
28004;BME280;15330;51.234;6.754;2023-04-10T03:02:38;101582.13;;;8.55;73.66
28004;BME280;15330;51.234;6.754;2023-04-10T03:05:04;101584.00;;;8.64;73.43
28004;BME280;15330;51.234;6.754;2023-04-10T03:07:30;101581.41;;;8.53;73.59
28004;BME280;15330;51.234;6.754;2023-04-10T03:09:56;101574.59;;;8.60;73.70
28004;BME280;15330;51.234;6.754;2023-04-10T03:12:21;101577.09;;;8.62;72.82
28004;BME280;15330;51.234;6.754;2023-04-10T03:14:47;101573.03;;;8.58;73.34
28004;BME280;15330;51.234;6.754;2023-04-10T03:17:12;101563.78;;;8.62;73.03
28004;BME280;15330;51.234;6.754;2023-04-10T03:19:37;101557.28;;;8.55;73.07
28004;BME280;15330;51.234;6.754;2023-04-10T03:22:03;101560.66;;;8.57;73.03
28004;BME280;15330;51.234;6.754;2023-04-10T03:24:28;101552.94;;;8.54;73.78
28004;BME280;15330;51.234;6.754;2023-04-10T03:26:54;101551.94;;;8.55;72.99
28004;BME280;15330;51.234;6.754;2023-04-10T03:29:21;101556.78;;;8.40;73.69
28004;BME280;15330;51.234;6.754;2023-04-10T03:31:46;101551.16;;;8.64;72.84
28004;BME280;15330;51.234;6.754;2023-04-10T03:34:12;101539.47;;;8.55;72.98
28004;BME280;15330;51.234;6.754;2023-04-10T03:36:37;101537.41;;;8.38;73.45
28004;BME280;15330;51.234;6.754;2023-04-10T03:39:03;101532.97;;;8.48;73.49
28004;BME280;15330;51.234;6.754;2023-04-10T03:41:28;101531.22;;;8.58;73.29
28004;BME280;15330;51.234;6.754;2023-04-10T03:43:53;101535.38;;;8.51;72.72
28004;BME280;15330;51.234;6.754;2023-04-10T03:46:19;101535.72;;;8.37;73.51
28004;BME280;15330;51.234;6.754;2023-04-10T03:48:44;101526.22;;;8.44;73.47
28004;BME280;15330;51.234;6.754;2023-04-10T03:51:09;101528.94;;;8.33;74.13
28004;BME280;15330;51.234;6.754;2023-04-10T03:53:35;101530.38;;;8.37;73.97
28004;BME280;15330;51.234;6.754;2023-04-10T03:56:02;101533.09;;;8.26;74.50
28004;BME280;15330;51.234;6.754;2023-04-10T03:58:27;101524.34;;;8.35;74.23
28004;BME280;15330;51.234;6.754;2023-04-10T04:00:53;101535.97;;;8.34;74.29
28004;BME280;15330;51.234;6.754;2023-04-10T04:03:19;101520.44;;;8.39;74.26
28004;BME280;15330;51.234;6.754;2023-04-10T04:05:44;101530.31;;;8.48;73.37
28004;BME280;15330;51.234;6.754;2023-04-10T04:08:09;101524.34;;;8.35;74.09
28004;BME280;15330;51.234;6.754;2023-04-10T04:10:35;101522.31;;;8.27;74.16
28004;BME280;15330;51.234;6.754;2023-04-10T04:13:00;101521.66;;;8.35;74.26
28004;BME280;15330;51.234;6.754;2023-04-10T04:15:25;101518.66;;;8.28;74.09
28004;BME280;15330;51.234;6.754;2023-04-10T04:17:51;101523.28;;;8.26;74.49
28004;BME280;15330;51.234;6.754;2023-04-10T04:20:16;101527.97;;;8.34;73.90
28004;BME280;15330;51.234;6.754;2023-04-10T04:22:42;101526.78;;;8.27;73.88
28004;BME280;15330;51.234;6.754;2023-04-10T04:25:08;101527.88;;;8.24;74.22
28004;BME280;15330;51.234;6.754;2023-04-10T04:27:36;101523.88;;;8.30;73.84
28004;BME280;15330;51.234;6.754;2023-04-10T04:30:04;101519.25;;;8.32;74.27
28004;BME280;15330;51.234;6.754;2023-04-10T04:32:30;101513.72;;;8.24;73.90
28004;BME280;15330;51.234;6.754;2023-04-10T04:34:55;101506.53;;;8.35;73.74
28004;BME280;15330;51.234;6.754;2023-04-10T04:37:21;101506.19;;;8.29;74.33
28004;BME280;15330;51.234;6.754;2023-04-10T04:39:46;101506.44;;;8.46;72.76
28004;BME280;15330;51.234;6.754;2023-04-10T04:42:11;101504.19;;;8.31;73.67
28004;BME280;15330;51.234;6.754;2023-04-10T04:44:37;101511.13;;;8.13;74.44
28004;BME280;15330;51.234;6.754;2023-04-10T04:47:02;101501.81;;;8.28;73.10
28004;BME280;15330;51.234;6.754;2023-04-10T04:49:27;101503.25;;;8.32;73.68
28004;BME280;15330;51.234;6.754;2023-04-10T04:51:53;101511.13;;;8.33;73.52
28004;BME280;15330;51.234;6.754;2023-04-10T04:54:18;101510.53;;;8.30;73.66
28004;BME280;15330;51.234;6.754;2023-04-10T04:56:43;101512.75;;;8.25;73.99
28004;BME280;15330;51.234;6.754;2023-04-10T04:59:09;101516.13;;;8.27;73.78
28004;BME280;15330;51.234;6.754;2023-04-10T05:01:34;101514.53;;;8.35;73.68
28004;BME280;15330;51.234;6.754;2023-04-10T05:04:00;101518.59;;;8.19;74.31
28004;BME280;15330;51.234;6.754;2023-04-10T05:06:25;101522.88;;;8.31;74.04
28004;BME280;15330;51.234;6.754;2023-04-10T05:08:50;101519.50;;;8.29;74.27
28004;BME280;15330;51.234;6.754;2023-04-10T05:11:17;101506.88;;;8.10;75.38
28004;BME280;15330;51.234;6.754;2023-04-10T05:13:42;101510.19;;;8.23;74.74
28004;BME280;15330;51.234;6.754;2023-04-10T05:16:08;101509.41;;;8.11;75.74
28004;BME280;15330;51.234;6.754;2023-04-10T05:18:34;101504.19;;;8.31;75.23
28004;BME280;15330;51.234;6.754;2023-04-10T05:20:59;101511.13;;;8.33;74.85
28004;BME280;15330;51.234;6.754;2023-04-10T05:23:25;101508.97;;;8.27;75.43
28004;BME280;15330;51.234;6.754;2023-04-10T05:25:51;101518.16;;;8.34;75.25
28004;BME280;15330;51.234;6.754;2023-04-10T05:28:16;101520.47;;;8.28;75.27
28004;BME280;15330;51.234;6.754;2023-04-10T05:30:42;101517.50;;;8.42;75.39
28004;BME280;15330;51.234;6.754;2023-04-10T05:33:07;101516.59;;;8.32;75.16
28004;BME280;15330;51.234;6.754;2023-04-10T05:35:32;101524.59;;;8.62;74.24
28004;BME280;15330;51.234;6.754;2023-04-10T05:37:58;101516.97;;;8.78;73.58
28004;BME280;15330;51.234;6.754;2023-04-10T05:40:24;101513.03;;;8.82;73.33
28004;BME280;15330;51.234;6.754;2023-04-10T05:42:50;101508.88;;;8.90;73.26
28004;BME280;15330;51.234;6.754;2023-04-10T05:45:16;101508.31;;;8.96;72.04
28004;BME280;15330;51.234;6.754;2023-04-10T05:47:42;101518.91;;;9.07;71.67
28004;BME280;15330;51.234;6.754;2023-04-10T05:50:08;101510.16;;;9.54;70.04
28004;BME280;15330;51.234;6.754;2023-04-10T05:52:34;101505.94;;;9.71;69.38
28004;BME280;15330;51.234;6.754;2023-04-10T05:54:59;101505.19;;;10.08;67.81
28004;BME280;15330;51.234;6.754;2023-04-10T05:57:25;101496.66;;;9.85;68.14
28004;BME280;15330;51.234;6.754;2023-04-10T05:59:50;101505.19;;;9.98;68.07
28004;BME280;15330;51.234;6.754;2023-04-10T06:02:15;101500.69;;;10.08;67.73
28004;BME280;15330;51.234;6.754;2023-04-10T06:04:41;101488.53;;;10.43;66.91
28004;BME280;15330;51.234;6.754;2023-04-10T06:07:06;101495.06;;;10.68;66.34
28004;BME280;15330;51.234;6.754;2023-04-10T06:09:32;101487.72;;;10.70;65.65
28004;BME280;15330;51.234;6.754;2023-04-10T06:11:57;101497.03;;;10.65;65.65
28004;BME280;15330;51.234;6.754;2023-04-10T06:14:22;101491.66;;;10.28;66.21
28004;BME280;15330;51.234;6.754;2023-04-10T06:16:48;101486.47;;;10.37;66.39
28004;BME280;15330;51.234;6.754;2023-04-10T06:19:13;101486.81;;;10.88;64.81
28004;BME280;15330;51.234;6.754;2023-04-10T06:21:38;101488.38;;;10.81;65.27
28004;BME280;15330;51.234;6.754;2023-04-10T06:24:10;101478.91;;;11.32;63.10
28004;BME280;15330;51.234;6.754;2023-04-10T06:26:36;101484.50;;;10.93;63.98
28004;BME280;15330;51.234;6.754;2023-04-10T06:29:01;101488.50;;;11.34;64.04
28004;BME280;15330;51.234;6.754;2023-04-10T06:31:27;101495.16;;;11.84;63.21
28004;BME280;15330;51.234;6.754;2023-04-10T06:33:52;101496.06;;;12.10;60.79
28004;BME280;15330;51.234;6.754;2023-04-10T06:36:17;101495.81;;;12.21;59.78
28004;BME280;15330;51.234;6.754;2023-04-10T06:38:43;101487.97;;;11.84;60.24
28004;BME280;15330;51.234;6.754;2023-04-10T06:41:08;101483.34;;;12.12;59.17
28004;BME280;15330;51.234;6.754;2023-04-10T06:43:35;101480.91;;;12.01;59.10
28004;BME280;15330;51.234;6.754;2023-04-10T06:46:04;101476.09;;;11.87;58.91
28004;BME280;15330;51.234;6.754;2023-04-10T06:48:33;101474.56;;;11.49;59.39
28004;BME280;15330;51.234;6.754;2023-04-10T06:50:58;101467.22;;;11.86;59.29
28004;BME280;15330;51.234;6.754;2023-04-10T06:53:26;101478.88;;;12.21;58.38
28004;BME280;15330;51.234;6.754;2023-04-10T06:55:52;101474.25;;;12.31;58.01
28004;BME280;15330;51.234;6.754;2023-04-10T06:58:17;101471.34;;;11.63;59.72
28004;BME280;15330;51.234;6.754;2023-04-10T07:00:43;101466.59;;;11.57;59.59
28004;BME280;15330;51.234;6.754;2023-04-10T07:03:08;101470.81;;;11.95;58.53
28004;BME280;15330;51.234;6.754;2023-04-10T07:05:34;101463.63;;;11.77;59.02
28004;BME280;15330;51.234;6.754;2023-04-10T07:07:59;101468.34;;;11.66;58.31
28004;BME280;15330;51.234;6.754;2023-04-10T07:10:25;101469.75;;;11.70;58.08
28004;BME280;15330;51.234;6.754;2023-04-10T07:12:50;101471.94;;;12.10;58.18
28004;BME280;15330;51.234;6.754;2023-04-10T07:15:17;101467.00;;;12.23;57.48
28004;BME280;15330;51.234;6.754;2023-04-10T07:17:42;101465.28;;;11.96;57.84
28004;BME280;15330;51.234;6.754;2023-04-10T07:20:08;101452.09;;;12.29;57.30
28004;BME280;15330;51.234;6.754;2023-04-10T07:22:34;101455.50;;;12.39;57.13
28004;BME280;15330;51.234;6.754;2023-04-10T07:25:00;101451.38;;;11.75;58.21
28004;BME280;15330;51.234;6.754;2023-04-10T07:27:28;101447.25;;;11.81;58.18
28004;BME280;15330;51.234;6.754;2023-04-10T07:29:54;101457.69;;;12.35;56.63
28004;BME280;15330;51.234;6.754;2023-04-10T07:32:21;101452.22;;;11.75;58.17
28004;BME280;15330;51.234;6.754;2023-04-10T07:34:46;101451.38;;;12.19;57.78
28004;BME280;15330;51.234;6.754;2023-04-10T07:37:12;101450.03;;;12.15;57.47
28004;BME280;15330;51.234;6.754;2023-04-10T07:39:38;101449.31;;;11.69;58.37
28004;BME280;15330;51.234;6.754;2023-04-10T07:42:03;101440.94;;;12.16;57.43
28004;BME280;15330;51.234;6.754;2023-04-10T07:44:28;101427.50;;;12.33;56.84
28004;BME280;15330;51.234;6.754;2023-04-10T07:46:54;101426.81;;;12.31;56.96
28004;BME280;15330;51.234;6.754;2023-04-10T07:49:20;101418.44;;;12.34;57.03
28004;BME280;15330;51.234;6.754;2023-04-10T07:51:45;101421.19;;;12.17;56.49
28004;BME280;15330;51.234;6.754;2023-04-10T07:54:13;101418.75;;;12.31;55.74
28004;BME280;15330;51.234;6.754;2023-04-10T07:56:38;101412.16;;;12.52;55.07
28004;BME280;15330;51.234;6.754;2023-04-10T07:59:04;101403.84;;;12.71;55.05
28004;BME280;15330;51.234;6.754;2023-04-10T08:01:29;101408.78;;;12.49;55.04
28004;BME280;15330;51.234;6.754;2023-04-10T08:03:55;101400.31;;;13.29;53.93
28004;BME280;15330;51.234;6.754;2023-04-10T08:06:21;101395.72;;;13.05;53.97
28004;BME280;15330;51.234;6.754;2023-04-10T08:08:49;101398.72;;;13.10;54.00
28004;BME280;15330;51.234;6.754;2023-04-10T08:11:27;101395.50;;;12.98;53.92
28004;BME280;15330;51.234;6.754;2023-04-10T08:13:54;101387.59;;;12.80;54.08
28004;BME280;15330;51.234;6.754;2023-04-10T08:16:28;101385.81;;;13.05;54.10
28004;BME280;15330;51.234;6.754;2023-04-10T08:18:54;101393.66;;;12.99;53.83
28004;BME280;15330;51.234;6.754;2023-04-10T08:21:22;101384.72;;;12.74;54.48
28004;BME280;15330;51.234;6.754;2023-04-10T08:23:52;101381.16;;;13.32;52.91
28004;BME280;15330;51.234;6.754;2023-04-10T08:26:18;101403.84;;;12.79;53.56
28004;BME280;15330;51.234;6.754;2023-04-10T08:28:48;101367.88;;;13.30;52.72
28004;BME280;15330;51.234;6.754;2023-04-10T08:31:19;101378.22;;;12.93;54.02
28004;BME280;15330;51.234;6.754;2023-04-10T08:33:44;101369.47;;;12.74;53.60
28004;BME280;15330;51.234;6.754;2023-04-10T08:36:11;101374.44;;;13.44;52.63
28004;BME280;15330;51.234;6.754;2023-04-10T08:38:37;101361.66;;;13.30;52.55
28004;BME280;15330;51.234;6.754;2023-04-10T08:41:04;101351.94;;;13.45;52.43
28004;BME280;15330;51.234;6.754;2023-04-10T08:43:30;101354.81;;;13.35;52.66
28004;BME280;15330;51.234;6.754;2023-04-10T08:45:55;101351.94;;;13.45;52.42
28004;BME280;15330;51.234;6.754;2023-04-10T08:48:25;101350.91;;;13.62;52.03
28004;BME280;15330;51.234;6.754;2023-04-10T08:50:59;101369.72;;;13.30;52.28
28004;BME280;15330;51.234;6.754;2023-04-10T08:53:27;101333.31;;;13.27;52.67
28004;BME280;15330;51.234;6.754;2023-04-10T08:55:55;101323.91;;;13.47;52.00
28004;BME280;15330;51.234;6.754;2023-04-10T08:58:21;101342.16;;;13.03;52.58
28004;BME280;15330;51.234;6.754;2023-04-10T09:00:48;101325.06;;;13.37;52.27
28004;BME280;15330;51.234;6.754;2023-04-10T09:03:14;101325.00;;;14.32;52.52
28004;BME280;15330;51.234;6.754;2023-04-10T09:05:40;101311.81;;;14.07;50.31
28004;BME280;15330;51.234;6.754;2023-04-10T09:08:08;101325.66;;;14.34;49.17
28004;BME280;15330;51.234;6.754;2023-04-10T09:10:35;101313.88;;;14.36;48.89
28004;BME280;15330;51.234;6.754;2023-04-10T09:13:00;101317.47;;;15.13;47.68
28004;BME280;15330;51.234;6.754;2023-04-10T09:15:26;101334.91;;;15.02;48.25
28004;BME280;15330;51.234;6.754;2023-04-10T09:17:58;101316.44;;;14.91;47.71
28004;BME280;15330;51.234;6.754;2023-04-10T09:20:27;101323.88;;;15.49;46.73
28004;BME280;15330;51.234;6.754;2023-04-10T09:22:53;101350.19;;;15.70;46.29
28004;BME280;15330;51.234;6.754;2023-04-10T09:25:47;101316.56;;;15.20;45.96
28004;BME280;15330;51.234;6.754;2023-04-10T09:28:13;101335.75;;;15.63;45.43
28004;BME280;15330;51.234;6.754;2023-04-10T09:30:41;101339.44;;;15.01;45.91
28004;BME280;15330;51.234;6.754;2023-04-10T09:33:20;101337.78;;;14.69;47.14
28004;BME280;15330;51.234;6.754;2023-04-10T09:35:46;101329.75;;;15.15;46.22
28004;BME280;15330;51.234;6.754;2023-04-10T09:38:16;101324.13;;;15.02;46.60
28004;BME280;15330;51.234;6.754;2023-04-10T09:40:42;101309.31;;;14.98;46.02
28004;BME280;15330;51.234;6.754;2023-04-10T09:43:24;101297.34;;;15.00;46.34
28004;BME280;15330;51.234;6.754;2023-04-10T09:45:54;101302.56;;;15.02;46.28
28004;BME280;15330;51.234;6.754;2023-04-10T09:48:22;101301.06;;;15.60;45.88
28004;BME280;15330;51.234;6.754;2023-04-10T09:50:48;101304.34;;;15.32;45.64
28004;BME280;15330;51.234;6.754;2023-04-10T09:53:15;101307.97;;;15.77;45.51
28004;BME280;15330;51.234;6.754;2023-04-10T09:55:43;101287.97;;;15.86;44.91
28004;BME280;15330;51.234;6.754;2023-04-10T09:58:10;101310.91;;;15.30;44.82
28004;BME280;15330;51.234;6.754;2023-04-10T10:00:39;101290.09;;;15.61;44.76
28004;BME280;15330;51.234;6.754;2023-04-10T10:03:08;101276.44;;;15.77;44.92
28004;BME280;15330;51.234;6.754;2023-04-10T10:05:39;101270.19;;;16.06;44.06
28004;BME280;15330;51.234;6.754;2023-04-10T10:08:06;101269.91;;;16.88;42.66
28004;BME280;15330;51.234;6.754;2023-04-10T10:10:32;101266.28;;;16.60;42.93
28004;BME280;15330;51.234;6.754;2023-04-10T10:13:01;101265.53;;;16.66;42.35
28004;BME280;15330;51.234;6.754;2023-04-10T10:15:45;101261.56;;;16.47;41.62
28004;BME280;15330;51.234;6.754;2023-04-10T10:20:47;101249.59;;;16.56;42.02
28004;BME280;15330;51.234;6.754;2023-04-10T10:23:14;101252.63;;;15.96;41.52
28004;BME280;15330;51.234;6.754;2023-04-10T10:25:40;101242.03;;;16.30;41.42
28004;BME280;15330;51.234;6.754;2023-04-10T10:28:11;101254.38;;;15.89;42.09
28004;BME280;15330;51.234;6.754;2023-04-10T10:30:37;101233.34;;;15.99;41.80
28004;BME280;15330;51.234;6.754;2023-04-10T10:33:05;101214.19;;;15.94;42.24
28004;BME280;15330;51.234;6.754;2023-04-10T10:35:31;101205.31;;;16.00;42.00
28004;BME280;15330;51.234;6.754;2023-04-10T10:37:59;101204.78;;;15.90;41.66
28004;BME280;15330;51.234;6.754;2023-04-10T10:40:31;101187.44;;;16.13;41.97
28004;BME280;15330;51.234;6.754;2023-04-10T10:43:06;101185.09;;;15.45;43.04
28004;BME280;15330;51.234;6.754;2023-04-10T10:45:45;101182.59;;;15.73;42.58
28004;BME280;15330;51.234;6.754;2023-04-10T10:48:12;101171.09;;;16.00;42.65
28004;BME280;15330;51.234;6.754;2023-04-10T10:50:51;101176.44;;;15.50;42.73
28004;BME280;15330;51.234;6.754;2023-04-10T10:53:42;101162.47;;;15.90;42.30
28004;BME280;15330;51.234;6.754;2023-04-10T10:58:47;101168.19;;;15.66;42.94
28004;BME280;15330;51.234;6.754;2023-04-10T11:01:13;101166.69;;;15.34;43.07
28004;BME280;15330;51.234;6.754;2023-04-10T11:03:38;101145.50;;;15.46;43.14
28004;BME280;15330;51.234;6.754;2023-04-10T11:06:08;101138.13;;;15.69;42.88
28004;BME280;15330;51.234;6.754;2023-04-10T11:11:09;101132.00;;;15.46;42.91
28004;BME280;15330;51.234;6.754;2023-04-10T11:13:41;101120.66;;;15.65;42.96
28004;BME280;15330;51.234;6.754;2023-04-10T11:16:08;101117.19;;;15.86;42.38
28004;BME280;15330;51.234;6.754;2023-04-10T11:21:12;101122.50;;;15.50;43.34
28004;BME280;15330;51.234;6.754;2023-04-10T11:23:59;101114.78;;;15.76;43.31
28004;BME280;15330;51.234;6.754;2023-04-10T11:31:36;101106.19;;;15.87;42.93
28004;BME280;15330;51.234;6.754;2023-04-10T11:34:04;101092.47;;;16.03;42.71
28004;BME280;15330;51.234;6.754;2023-04-10T11:36:31;101105.44;;;15.93;42.80
28004;BME280;15330;51.234;6.754;2023-04-10T11:39:08;101087.94;;;15.89;43.19
28004;BME280;15330;51.234;6.754;2023-04-10T11:41:35;101083.59;;;15.88;43.37
28004;BME280;15330;51.234;6.754;2023-04-10T11:44:05;101080.09;;;15.73;43.15
28004;BME280;15330;51.234;6.754;2023-04-10T11:46:35;101075.78;;;15.57;43.45
28004;BME280;15330;51.234;6.754;2023-04-10T11:49:02;101076.59;;;15.58;43.68
28004;BME280;15330;51.234;6.754;2023-04-10T11:51:29;101068.59;;;15.64;43.46
28004;BME280;15330;51.234;6.754;2023-04-10T11:56:38;101066.63;;;15.58;43.75
28004;BME280;15330;51.234;6.754;2023-04-10T11:59:04;101071.66;;;15.61;43.87
28004;BME280;15330;51.234;6.754;2023-04-10T12:01:38;101075.16;;;15.76;43.75
28004;BME280;15330;51.234;6.754;2023-04-10T12:04:12;101055.63;;;15.74;43.62
28004;BME280;15330;51.234;6.754;2023-04-10T12:06:38;101053.91;;;15.67;43.50
28004;BME280;15330;51.234;6.754;2023-04-10T12:09:11;101058.34;;;15.74;43.02
28004;BME280;15330;51.234;6.754;2023-04-10T12:11:37;101046.25;;;15.92;42.85
28004;BME280;15330;51.234;6.754;2023-04-10T12:14:02;101039.94;;;15.63;43.26
28004;BME280;15330;51.234;6.754;2023-04-10T12:16:28;101034.75;;;15.62;43.55
28004;BME280;15330;51.234;6.754;2023-04-10T12:18:53;101040.00;;;15.70;43.51
28004;BME280;15330;51.234;6.754;2023-04-10T12:21:19;101024.22;;;15.67;43.12
28004;BME280;15330;51.234;6.754;2023-04-10T12:23:45;101020.38;;;15.76;43.25
28004;BME280;15330;51.234;6.754;2023-04-10T12:26:15;101020.63;;;15.81;43.97
28004;BME280;15330;51.234;6.754;2023-04-10T12:28:49;101026.63;;;15.98;43.42
28004;BME280;15330;51.234;6.754;2023-04-10T12:31:15;101012.63;;;15.88;43.44
28004;BME280;15330;51.234;6.754;2023-04-10T12:33:45;101011.88;;;16.00;43.65
28004;BME280;15330;51.234;6.754;2023-04-10T12:36:24;101014.47;;;16.08;42.86
28004;BME280;15330;51.234;6.754;2023-04-10T12:39:02;101004.13;;;16.40;42.55
28004;BME280;15330;51.234;6.754;2023-04-10T12:41:30;100995.59;;;17.05;41.84
28004;BME280;15330;51.234;6.754;2023-04-10T12:44:09;100997.25;;;17.00;41.41
28004;BME280;15330;51.234;6.754;2023-04-10T12:46:35;100980.50;;;16.76;41.32
28004;BME280;15330;51.234;6.754;2023-04-10T12:49:17;100986.00;;;16.96;40.95
28004;BME280;15330;51.234;6.754;2023-04-10T12:51:50;100983.47;;;16.88;41.06
28004;BME280;15330;51.234;6.754;2023-04-10T12:54:32;100990.47;;;16.48;41.87
28004;BME280;15330;51.234;6.754;2023-04-10T12:56:59;100969.31;;;16.79;41.79
28004;BME280;15330;51.234;6.754;2023-04-10T12:59:25;100969.19;;;17.01;41.25
28004;BME280;15330;51.234;6.754;2023-04-10T13:01:51;100965.88;;;16.99;41.54
28004;BME280;15330;51.234;6.754;2023-04-10T13:04:16;100961.09;;;17.07;40.99
28004;BME280;15330;51.234;6.754;2023-04-10T13:06:46;100963.81;;;17.01;41.48
28004;BME280;15330;51.234;6.754;2023-04-10T13:09:13;100955.06;;;16.99;41.34
28004;BME280;15330;51.234;6.754;2023-04-10T13:11:39;100961.41;;;16.84;41.39
28004;BME280;15330;51.234;6.754;2023-04-10T13:14:04;100960.00;;;16.95;41.51
28004;BME280;15330;51.234;6.754;2023-04-10T13:16:30;100951.63;;;16.77;41.60
28004;BME280;15330;51.234;6.754;2023-04-10T13:18:55;100950.41;;;16.79;41.85
28004;BME280;15330;51.234;6.754;2023-04-10T13:21:21;100951.66;;;16.83;41.18
28004;BME280;15330;51.234;6.754;2023-04-10T13:23:50;100934.47;;;17.04;41.38
28004;BME280;15330;51.234;6.754;2023-04-10T13:26:15;100922.63;;;16.99;41.11
28004;BME280;15330;51.234;6.754;2023-04-10T13:28:41;100923.25;;;17.01;41.03